This is the latest recevied weather packets stored in our database for station/object EB1BWO-11. If no packets are shown the sender has not sent any weather packets the latest 1 day(s).
| Time | Temp. | Humidity | Pressure | Rain* | Wind** | Luminosity | Snow |
|---|---|---|---|---|---|---|---|
| 1778100128 | 13.89° C | 73% | 1017.1 hPa | - | - | - | - |
| 1778099228 | 14.44° C | 71% | 1017.1 hPa | - | - | - | - |
| 1778092027 | 16.67° C | 69% | 1016.6 hPa | - | - | - | - |
| 1778086626 | 17.78° C | 67% | 1016.7 hPa | - | - | - | - |
| 1778085726 | 17.78° C | 67% | 1016.7 hPa | - | - | - | - |
| 1778084826 | 17.78° C | 66% | 1016.8 hPa | - | - | - | - |
| 1778082125 | 19.44° C | 64% | 1017 hPa | - | - | - | - |
| 1778079425 | 18.89° C | 65% | 1017.1 hPa | - | - | - | - |
| 1778078525 | 19.44° C | 63% | 1017.3 hPa | - | - | - | - |
| 1778071324 | 35.56° C | 37% | 1017.5 hPa | - | - | - | - |
| 1778070421 | 33.89° C | 39% | 1017.3 hPa | - | - | - | - |
| 1778067720 | 28.89° C | 46% | 1017.6 hPa | - | - | - | - |
| 1778063218 | 21.67° C | 57% | 1017.9 hPa | - | - | - | - |
| 1778061418 | 21.11° C | 60% | 1017.8 hPa | - | - | - | - |
| 1778060518 | 20.56° C | 61% | 1017.9 hPa | - | - | - | - |
| 1778059618 | 20° C | 62% | 1017.8 hPa | - | - | - | - |
| 1778058718 | 19.44° C | 62% | 1017.7 hPa | - | - | - | - |
| 1778054217 | 15.56° C | 70% | 1017.7 hPa | - | - | - | - |
| 1778053317 | 14.44° C | 72% | 1017.6 hPa | - | - | - | - |
| 1778049715 | 13.33° C | 74% | 1017.4 hPa | - | - | - | - |
| 1778048815 | 12.22° C | 75% | 1017.2 hPa | - | - | - | - |
| 1778047915 | 11.11° C | 76% | 1017.4 hPa | - | - | - | - |
| 1778047015 | 10.56° C | 76% | 1017.5 hPa | - | - | - | - |
| 1778046115 | 10° C | 77% | 1017.3 hPa | - | - | - | - |
| 1778045215 | 10° C | 77% | 1017.3 hPa | - | - | - | - |
* Rain since midnight (hover to see other rain measurements)
** Current wind speed in m/s (hover to see current wind gust speed)